sensor_id;sensor_type;location;lat;lon;timestamp;temperature;humidity
19847;DHT22;10084;50.518;8.588;2024-03-17T00:01:02;8.40;68.50
19847;DHT22;10084;50.518;8.588;2024-03-17T00:03:29;8.30;68.50
19847;DHT22;10084;50.518;8.588;2024-03-17T00:05:59;8.20;68.50
19847;DHT22;10084;50.518;8.588;2024-03-17T00:08:25;8.20;68.60
19847;DHT22;10084;50.518;8.588;2024-03-17T00:10:55;8.20;68.60
19847;DHT22;10084;50.518;8.588;2024-03-17T00:13:21;8.10;68.70
19847;DHT22;10084;50.518;8.588;2024-03-17T00:15:50;8.10;68.70
19847;DHT22;10084;50.518;8.588;2024-03-17T00:18:16;8.00;68.70
19847;DHT22;10084;50.518;8.588;2024-03-17T00:20:42;8.00;68.80
19847;DHT22;10084;50.518;8.588;2024-03-17T00:23:09;7.90;68.80
19847;DHT22;10084;50.518;8.588;2024-03-17T00:25:38;7.80;68.90
19847;DHT22;10084;50.518;8.588;2024-03-17T00:28:04;7.70;68.90
19847;DHT22;10084;50.518;8.588;2024-03-17T00:30:30;7.60;68.80
19847;DHT22;10084;50.518;8.588;2024-03-17T00:32:57;7.50;68.80
19847;DHT22;10084;50.518;8.588;2024-03-17T00:35:26;7.40;68.90
19847;DHT22;10084;50.518;8.588;2024-03-17T00:37:52;7.30;69.20
19847;DHT22;10084;50.518;8.588;2024-03-17T00:40:19;7.30;69.40
19847;DHT22;10084;50.518;8.588;2024-03-17T00:42:45;7.20;69.40
19847;DHT22;10084;50.518;8.588;2024-03-17T00:45:11;7.20;69.50
19847;DHT22;10084;50.518;8.588;2024-03-17T00:47:38;7.20;69.50
19847;DHT22;10084;50.518;8.588;2024-03-17T00:50:05;7.10;69.40
19847;DHT22;10084;50.518;8.588;2024-03-17T00:52:32;7.10;69.40
19847;DHT22;10084;50.518;8.588;2024-03-17T00:54:58;7.10;69.40
19847;DHT22;10084;50.518;8.588;2024-03-17T00:57:24;7.00;69.60
19847;DHT22;10084;50.518;8.588;2024-03-17T00:59:50;6.90;69.40
19847;DHT22;10084;50.518;8.588;2024-03-17T01:02:18;6.90;69.50
19847;DHT22;10084;50.518;8.588;2024-03-17T01:04:44;6.80;69.50
19847;DHT22;10084;50.518;8.588;2024-03-17T01:07:10;6.80;69.70
19847;DHT22;10084;50.518;8.588;2024-03-17T01:09:36;6.70;69.70
19847;DHT22;10084;50.518;8.588;2024-03-17T01:12:02;6.70;69.70
19847;DHT22;10084;50.518;8.588;2024-03-17T01:14:29;6.70;69.80
19847;DHT22;10084;50.518;8.588;2024-03-17T01:16:56;6.60;69.70
19847;DHT22;10084;50.518;8.588;2024-03-17T01:19:22;6.60;69.80
19847;DHT22;10084;50.518;8.588;2024-03-17T01:21:48;6.50;69.80
19847;DHT22;10084;50.518;8.588;2024-03-17T01:24:14;6.40;70.00
19847;DHT22;10084;50.518;8.588;2024-03-17T01:26:40;6.30;70.00
19847;DHT22;10084;50.518;8.588;2024-03-17T01:29:06;6.30;70.10
19847;DHT22;10084;50.518;8.588;2024-03-17T01:31:34;6.20;70.20
19847;DHT22;10084;50.518;8.588;2024-03-17T01:34:00;6.20;70.30
19847;DHT22;10084;50.518;8.588;2024-03-17T01:36:26;6.10;70.20
19847;DHT22;10084;50.518;8.588;2024-03-17T01:38:52;6.10;70.20
19847;DHT22;10084;50.518;8.588;2024-03-17T01:41:18;6.00;70.20
19847;DHT22;10084;50.518;8.588;2024-03-17T01:43:44;6.00;70.20
19847;DHT22;10084;50.518;8.588;2024-03-17T01:46:14;5.90;70.10
19847;DHT22;10084;50.518;8.588;2024-03-17T01:48:40;5.70;70.10
19847;DHT22;10084;50.518;8.588;2024-03-17T01:51:08;5.60;70.20
19847;DHT22;10084;50.518;8.588;2024-03-17T01:53:37;5.50;70.40
19847;DHT22;10084;50.518;8.588;2024-03-17T01:56:04;5.50;70.60
19847;DHT22;10084;50.518;8.588;2024-03-17T01:58:30;5.40;70.70
19847;DHT22;10084;50.518;8.588;2024-03-17T02:00:57;5.30;70.80
19847;DHT22;10084;50.518;8.588;2024-03-17T02:03:23;5.30;70.90
19847;DHT22;10084;50.518;8.588;2024-03-17T02:05:48;5.20;71.00
19847;DHT22;10084;50.518;8.588;2024-03-17T02:08:15;5.20;71.10
19847;DHT22;10084;50.518;8.588;2024-03-17T02:10:41;5.10;71.00
19847;DHT22;10084;50.518;8.588;2024-03-17T02:13:07;5.10;71.10
19847;DHT22;10084;50.518;8.588;2024-03-17T02:15:33;5.10;71.20
19847;DHT22;10084;50.518;8.588;2024-03-17T02:17:59;5.00;71.10
19847;DHT22;10084;50.518;8.588;2024-03-17T02:20:25;5.00;71.10
19847;DHT22;10084;50.518;8.588;2024-03-17T02:23:11;5.00;71.20
19847;DHT22;10084;50.518;8.588;2024-03-17T02:25:37;4.90;71.20
19847;DHT22;10084;50.518;8.588;2024-03-17T02:28:03;4.90;71.20
19847;DHT22;10084;50.518;8.588;2024-03-17T02:30:30;4.90;71.30
19847;DHT22;10084;50.518;8.588;2024-03-17T02:32:56;4.80;71.30
19847;DHT22;10084;50.518;8.588;2024-03-17T02:35:23;4.80;71.30
19847;DHT22;10084;50.518;8.588;2024-03-17T02:37:49;4.80;71.30
19847;DHT22;10084;50.518;8.588;2024-03-17T02:40:15;4.70;71.40
19847;DHT22;10084;50.518;8.588;2024-03-17T02:42:42;4.70;71.40
19847;DHT22;10084;50.518;8.588;2024-03-17T02:45:11;4.70;71.40
19847;DHT22;10084;50.518;8.588;2024-03-17T02:47:40;4.70;71.40
19847;DHT22;10084;50.518;8.588;2024-03-17T02:50:07;4.60;71.40
19847;DHT22;10084;50.518;8.588;2024-03-17T02:52:33;4.60;71.40
19847;DHT22;10084;50.518;8.588;2024-03-17T02:54:59;4.60;71.40
19847;DHT22;10084;50.518;8.588;2024-03-17T02:57:26;4.50;71.40
19847;DHT22;10084;50.518;8.588;2024-03-17T02:59:58;4.40;71.50
19847;DHT22;10084;50.518;8.588;2024-03-17T03:02:24;4.40;72.20
19847;DHT22;10084;50.518;8.588;2024-03-17T03:04:50;4.30;71.50
19847;DHT22;10084;50.518;8.588;2024-03-17T03:07:16;4.30;71.60
19847;DHT22;10084;50.518;8.588;2024-03-17T03:09:42;4.20;71.60
19847;DHT22;10084;50.518;8.588;2024-03-17T03:12:08;4.20;71.70
19847;DHT22;10084;50.518;8.588;2024-03-17T03:14:34;4.20;71.70
19847;DHT22;10084;50.518;8.588;2024-03-17T03:17:00;4.20;71.80
19847;DHT22;10084;50.518;8.588;2024-03-17T03:19:26;4.10;71.70
19847;DHT22;10084;50.518;8.588;2024-03-17T03:21:52;4.10;71.80
19847;DHT22;10084;50.518;8.588;2024-03-17T03:24:18;4.10;71.80
19847;DHT22;10084;50.518;8.588;2024-03-17T03:26:44;4.00;71.80
19847;DHT22;10084;50.518;8.588;2024-03-17T03:29:10;4.00;71.90
19847;DHT22;10084;50.518;8.588;2024-03-17T03:31:36;3.90;72.00
19847;DHT22;10084;50.518;8.588;2024-03-17T03:34:04;3.90;72.00
19847;DHT22;10084;50.518;8.588;2024-03-17T03:36:34;3.90;72.00
19847;DHT22;10084;50.518;8.588;2024-03-17T03:38:59;4.00;72.10
19847;DHT22;10084;50.518;8.588;2024-03-17T03:41:25;3.90;72.00
19847;DHT22;10084;50.518;8.588;2024-03-17T03:43:51;3.90;72.00
19847;DHT22;10084;50.518;8.588;2024-03-17T03:46:19;3.90;72.00
19847;DHT22;10084;50.518;8.588;2024-03-17T03:48:46;4.00;72.10
19847;DHT22;10084;50.518;8.588;2024-03-17T03:51:11;3.90;72.00
19847;DHT22;10084;50.518;8.588;2024-03-17T03:53:37;3.90;72.00
19847;DHT22;10084;50.518;8.588;2024-03-17T03:56:05;4.00;72.10
19847;DHT22;10084;50.518;8.588;2024-03-17T03:58:36;3.90;71.90
19847;DHT22;10084;50.518;8.588;2024-03-17T04:01:09;3.90;72.10
19847;DHT22;10084;50.518;8.588;2024-03-17T04:03:37;3.90;72.00
19847;DHT22;10084;50.518;8.588;2024-03-17T04:06:07;3.80;71.90
19847;DHT22;10084;50.518;8.588;2024-03-17T04:08:34;3.80;72.10
19847;DHT22;10084;50.518;8.588;2024-03-17T04:11:01;3.70;72.10
19847;DHT22;10084;50.518;8.588;2024-03-17T04:13:28;3.70;72.90
19847;DHT22;10084;50.518;8.588;2024-03-17T04:15:59;3.70;72.30
19847;DHT22;10084;50.518;8.588;2024-03-17T04:18:28;3.70;72.30
19847;DHT22;10084;50.518;8.588;2024-03-17T04:20:57;3.60;72.30
19847;DHT22;10084;50.518;8.588;2024-03-17T04:23:23;3.60;72.30
19847;DHT22;10084;50.518;8.588;2024-03-17T04:25:51;3.60;72.30
19847;DHT22;10084;50.518;8.588;2024-03-17T04:28:17;3.60;72.40
19847;DHT22;10084;50.518;8.588;2024-03-17T04:30:42;3.60;72.40
19847;DHT22;10084;50.518;8.588;2024-03-17T04:33:12;3.60;73.10
19847;DHT22;10084;50.518;8.588;2024-03-17T04:35:39;3.60;72.40
19847;DHT22;10084;50.518;8.588;2024-03-17T04:38:05;3.60;72.40
19847;DHT22;10084;50.518;8.588;2024-03-17T04:40:32;3.60;72.50
19847;DHT22;10084;50.518;8.588;2024-03-17T04:42:58;3.60;72.50
19847;DHT22;10084;50.518;8.588;2024-03-17T04:45:24;3.60;72.50
19847;DHT22;10084;50.518;8.588;2024-03-17T04:47:50;3.50;72.40
19847;DHT22;10084;50.518;8.588;2024-03-17T04:50:16;3.50;72.40
19847;DHT22;10084;50.518;8.588;2024-03-17T04:52:42;3.50;72.50
19847;DHT22;10084;50.518;8.588;2024-03-17T04:55:08;3.50;72.60
19847;DHT22;10084;50.518;8.588;2024-03-17T04:57:34;3.50;72.60
19847;DHT22;10084;50.518;8.588;2024-03-17T04:59:59;3.50;72.60
19847;DHT22;10084;50.518;8.588;2024-03-17T05:02:26;3.60;72.60
19847;DHT22;10084;50.518;8.588;2024-03-17T05:04:53;3.60;72.60
19847;DHT22;10084;50.518;8.588;2024-03-17T05:07:19;3.60;73.40
19847;DHT22;10084;50.518;8.588;2024-03-17T05:09:44;3.60;72.60
19847;DHT22;10084;50.518;8.588;2024-03-17T05:12:10;3.60;72.60
19847;DHT22;10084;50.518;8.588;2024-03-17T05:14:36;3.60;72.70
19847;DHT22;10084;50.518;8.588;2024-03-17T05:17:02;3.50;72.60
19847;DHT22;10084;50.518;8.588;2024-03-17T05:19:28;3.50;72.80
19847;DHT22;10084;50.518;8.588;2024-03-17T05:21:54;3.50;72.80
19847;DHT22;10084;50.518;8.588;2024-03-17T05:24:20;3.50;72.80
19847;DHT22;10084;50.518;8.588;2024-03-17T05:26:46;3.50;72.80
19847;DHT22;10084;50.518;8.588;2024-03-17T05:29:12;3.50;72.80
19847;DHT22;10084;50.518;8.588;2024-03-17T05:31:38;3.50;72.80
19847;DHT22;10084;50.518;8.588;2024-03-17T05:34:08;3.50;72.90
19847;DHT22;10084;50.518;8.588;2024-03-17T05:36:36;3.40;72.90
19847;DHT22;10084;50.518;8.588;2024-03-17T05:39:02;3.40;72.90
19847;DHT22;10084;50.518;8.588;2024-03-17T05:41:28;3.40;73.00
19847;DHT22;10084;50.518;8.588;2024-03-17T05:43:54;3.40;73.60
19847;DHT22;10084;50.518;8.588;2024-03-17T05:46:24;3.40;73.00
19847;DHT22;10084;50.518;8.588;2024-03-17T05:48:51;3.40;73.10
19847;DHT22;10084;50.518;8.588;2024-03-17T05:51:17;3.40;73.10
19847;DHT22;10084;50.518;8.588;2024-03-17T05:53:43;3.30;73.00
19847;DHT22;10084;50.518;8.588;2024-03-17T05:56:12;3.30;73.10
19847;DHT22;10084;50.518;8.588;2024-03-17T05:58:41;3.30;73.10
19847;DHT22;10084;50.518;8.588;2024-03-17T06:01:07;3.30;73.10
19847;DHT22;10084;50.518;8.588;2024-03-17T06:03:36;3.30;73.20
19847;DHT22;10084;50.518;8.588;2024-03-17T06:06:03;3.30;73.30
19847;DHT22;10084;50.518;8.588;2024-03-17T06:08:30;3.40;73.40
19847;DHT22;10084;50.518;8.588;2024-03-17T06:10:56;3.40;73.40
19847;DHT22;10084;50.518;8.588;2024-03-17T06:13:26;3.50;73.50
19847;DHT22;10084;50.518;8.588;2024-03-17T06:15:53;3.60;73.70
19847;DHT22;10084;50.518;8.588;2024-03-17T06:18:19;3.70;73.60
19847;DHT22;10084;50.518;8.588;2024-03-17T06:20:47;3.80;73.50
19847;DHT22;10084;50.518;8.588;2024-03-17T06:23:15;3.80;73.50
19847;DHT22;10084;50.518;8.588;2024-03-17T06:25:43;3.90;73.60
19847;DHT22;10084;50.518;8.588;2024-03-17T06:28:10;3.90;73.70
19847;DHT22;10084;50.518;8.588;2024-03-17T06:30:59;4.00;73.90
19847;DHT22;10084;50.518;8.588;2024-03-17T06:33:26;4.20;74.30
19847;DHT22;10084;50.518;8.588;2024-03-17T06:35:53;4.50;74.50
19847;DHT22;10084;50.518;8.588;2024-03-17T06:38:19;4.80;74.70
19847;DHT22;10084;50.518;8.588;2024-03-17T06:40:49;5.00;74.70
19847;DHT22;10084;50.518;8.588;2024-03-17T06:43:15;5.30;74.80
19847;DHT22;10084;50.518;8.588;2024-03-17T06:45:41;5.60;74.80
19847;DHT22;10084;50.518;8.588;2024-03-17T06:48:07;5.90;74.90
19847;DHT22;10084;50.518;8.588;2024-03-17T06:50:33;6.20;74.90
19847;DHT22;10084;50.518;8.588;2024-03-17T06:52:59;6.50;74.70
19847;DHT22;10084;50.518;8.588;2024-03-17T06:55:24;6.80;74.70
19847;DHT22;10084;50.518;8.588;2024-03-17T06:57:50;7.10;74.70
19847;DHT22;10084;50.518;8.588;2024-03-17T07:00:16;7.30;74.60
19847;DHT22;10084;50.518;8.588;2024-03-17T07:02:44;7.60;74.50
19847;DHT22;10084;50.518;8.588;2024-03-17T07:05:13;7.80;74.10
19847;DHT22;10084;50.518;8.588;2024-03-17T07:07:43;7.90;73.70
19847;DHT22;10084;50.518;8.588;2024-03-17T07:10:09;8.00;73.30
19847;DHT22;10084;50.518;8.588;2024-03-17T07:12:40;8.10;73.00
19847;DHT22;10084;50.518;8.588;2024-03-17T07:15:07;8.10;72.60
19847;DHT22;10084;50.518;8.588;2024-03-17T07:17:34;8.10;72.70
19847;DHT22;10084;50.518;8.588;2024-03-17T07:20:00;8.10;72.70
19847;DHT22;10084;50.518;8.588;2024-03-17T07:22:27;8.10;72.80
19847;DHT22;10084;50.518;8.588;2024-03-17T07:24:54;8.20;72.90
19847;DHT22;10084;50.518;8.588;2024-03-17T07:27:28;8.30;72.90
19847;DHT22;10084;50.518;8.588;2024-03-17T07:29:54;8.30;72.60
19847;DHT22;10084;50.518;8.588;2024-03-17T07:32:19;8.40;72.70
19847;DHT22;10084;50.518;8.588;2024-03-17T07:34:45;8.50;72.80
19847;DHT22;10084;50.518;8.588;2024-03-17T07:37:11;8.70;72.70
19847;DHT22;10084;50.518;8.588;2024-03-17T07:39:37;8.70;72.40
19847;DHT22;10084;50.518;8.588;2024-03-17T07:42:03;8.80;72.20
19847;DHT22;10084;50.518;8.588;2024-03-17T07:44:29;8.90;72.20
19847;DHT22;10084;50.518;8.588;2024-03-17T07:47:00;9.00;72.10
19847;DHT22;10084;50.518;8.588;2024-03-17T07:49:26;9.00;71.80
19847;DHT22;10084;50.518;8.588;2024-03-17T07:51:51;9.10;71.80
19847;DHT22;10084;50.518;8.588;2024-03-17T07:54:17;9.20;71.70
19847;DHT22;10084;50.518;8.588;2024-03-17T07:56:45;9.30;71.60
19847;DHT22;10084;50.518;8.588;2024-03-17T07:59:12;9.40;71.60
19847;DHT22;10084;50.518;8.588;2024-03-17T08:01:42;9.50;71.80
19847;DHT22;10084;50.518;8.588;2024-03-17T08:04:07;9.70;71.50
19847;DHT22;10084;50.518;8.588;2024-03-17T08:06:33;9.90;71.60
19847;DHT22;10084;50.518;8.588;2024-03-17T08:08:59;10.10;71.60
19847;DHT22;10084;50.518;8.588;2024-03-17T08:11:25;10.40;71.60
19847;DHT22;10084;50.518;8.588;2024-03-17T08:13:51;10.70;71.10
19847;DHT22;10084;50.518;8.588;2024-03-17T08:16:17;11.00;71.00
19847;DHT22;10084;50.518;8.588;2024-03-17T08:18:43;11.20;70.90
19847;DHT22;10084;50.518;8.588;2024-03-17T08:21:08;11.40;70.70
19847;DHT22;10084;50.518;8.588;2024-03-17T08:26:05;12.00;91.90
19847;DHT22;10084;50.518;8.588;2024-03-17T08:28:31;12.20;85.20
19847;DHT22;10084;50.518;8.588;2024-03-17T08:31:01;12.50;70.00
19847;DHT22;10084;50.518;8.588;2024-03-17T08:33:28;12.80;68.90
19847;DHT22;10084;50.518;8.588;2024-03-17T08:35:59;13.00;68.60
19847;DHT22;10084;50.518;8.588;2024-03-17T08:38:26;13.20;67.70
19847;DHT22;10084;50.518;8.588;2024-03-17T08:40:54;13.30;67.20
19847;DHT22;10084;50.518;8.588;2024-03-17T08:43:21;13.60;66.90
19847;DHT22;10084;50.518;8.588;2024-03-17T08:46:00;13.70;66.40
19847;DHT22;10084;50.518;8.588;2024-03-17T08:48:28;13.80;65.90
19847;DHT22;10084;50.518;8.588;2024-03-17T08:50:55;13.90;65.30
19847;DHT22;10084;50.518;8.588;2024-03-17T08:53:21;14.00;64.80
19847;DHT22;10084;50.518;8.588;2024-03-17T08:55:47;14.10;63.30
19847;DHT22;10084;50.518;8.588;2024-03-17T08:58:14;14.00;63.20
19847;DHT22;10084;50.518;8.588;2024-03-17T09:00:40;14.00;63.40
19847;DHT22;10084;50.518;8.588;2024-03-17T09:03:09;14.10;63.40
19847;DHT22;10084;50.518;8.588;2024-03-17T09:05:40;14.10;62.60
19847;DHT22;10084;50.518;8.588;2024-03-17T09:08:06;14.20;62.50
19847;DHT22;10084;50.518;8.588;2024-03-17T09:10:39;14.20;62.50
19847;DHT22;10084;50.518;8.588;2024-03-17T09:13:05;14.30;62.60
19847;DHT22;10084;50.518;8.588;2024-03-17T09:15:31;14.30;62.40
19847;DHT22;10084;50.518;8.588;2024-03-17T09:17:56;14.30;61.90
19847;DHT22;10084;50.518;8.588;2024-03-17T09:20:22;14.20;61.70
19847;DHT22;10084;50.518;8.588;2024-03-17T09:22:48;14.00;61.70
19847;DHT22;10084;50.518;8.588;2024-03-17T09:25:14;14.00;62.00
19847;DHT22;10084;50.518;8.588;2024-03-17T09:27:40;13.90;62.30
19847;DHT22;10084;50.518;8.588;2024-03-17T09:30:07;14.00;62.50
19847;DHT22;10084;50.518;8.588;2024-03-17T09:32:35;14.10;62.50
19847;DHT22;10084;50.518;8.588;2024-03-17T09:35:01;14.20;61.80
19847;DHT22;10084;50.518;8.588;2024-03-17T09:37:28;14.20;61.50
19847;DHT22;10084;50.518;8.588;2024-03-17T09:39:57;14.30;61.10
19847;DHT22;10084;50.518;8.588;2024-03-17T09:42:24;14.30;60.70
19847;DHT22;10084;50.518;8.588;2024-03-17T09:44:50;14.30;60.70
19847;DHT22;10084;50.518;8.588;2024-03-17T09:47:19;14.30;60.50
19847;DHT22;10084;50.518;8.588;2024-03-17T09:49:49;14.40;60.40
19847;DHT22;10084;50.518;8.588;2024-03-17T09:52:22;14.50;60.10
19847;DHT22;10084;50.518;8.588;2024-03-17T09:55:08;14.50;59.80
19847;DHT22;10084;50.518;8.588;2024-03-17T09:57:39;14.60;59.70
19847;DHT22;10084;50.518;8.588;2024-03-17T10:00:13;14.60;59.30
19847;DHT22;10084;50.518;8.588;2024-03-17T10:02:44;14.50;59.20
19847;DHT22;10084;50.518;8.588;2024-03-17T10:05:24;14.40;59.40
19847;DHT22;10084;50.518;8.588;2024-03-17T10:07:51;14.30;59.60
19847;DHT22;10084;50.518;8.588;2024-03-17T10:10:18;14.30;59.50
19847;DHT22;10084;50.518;8.588;2024-03-17T10:12:52;14.20;59.50
19847;DHT22;10084;50.518;8.588;2024-03-17T10:15:18;14.30;59.80
19847;DHT22;10084;50.518;8.588;2024-03-17T10:17:44;14.40;59.60
19847;DHT22;10084;50.518;8.588;2024-03-17T10:20:18;14.60;58.80
19847;DHT22;10084;50.518;8.588;2024-03-17T10:25:28;14.60;58.30
19847;DHT22;10084;50.518;8.588;2024-03-17T10:27:57;14.70;58.40
19847;DHT22;10084;50.518;8.588;2024-03-17T10:30:24;14.70;58.20
19847;DHT22;10084;50.518;8.588;2024-03-17T10:33:01;14.80;57.90
19847;DHT22;10084;50.518;8.588;2024-03-17T10:37:54;14.80;57.20
19847;DHT22;10084;50.518;8.588;2024-03-17T10:40:20;14.80;57.40
19847;DHT22;10084;50.518;8.588;2024-03-17T10:42:46;14.80;57.20
19847;DHT22;10084;50.518;8.588;2024-03-17T10:45:13;14.70;57.30
19847;DHT22;10084;50.518;8.588;2024-03-17T10:47:42;14.70;58.30
19847;DHT22;10084;50.518;8.588;2024-03-17T10:50:17;14.70;57.90
19847;DHT22;10084;50.518;8.588;2024-03-17T10:52:45;14.60;57.80
19847;DHT22;10084;50.518;8.588;2024-03-17T10:55:23;14.60;57.80
19847;DHT22;10084;50.518;8.588;2024-03-17T10:57:51;14.50;57.60
19847;DHT22;10084;50.518;8.588;2024-03-17T11:00:19;14.50;57.90
19847;DHT22;10084;50.518;8.588;2024-03-17T11:02:45;14.50;57.90
19847;DHT22;10084;50.518;8.588;2024-03-17T11:07:44;14.70;57.80
19847;DHT22;10084;50.518;8.588;2024-03-17T11:10:27;14.80;57.60
19847;DHT22;10084;50.518;8.588;2024-03-17T11:12:58;14.90;57.50
19847;DHT22;10084;50.518;8.588;2024-03-17T11:23:56;15.70;56.40
19847;DHT22;10084;50.518;8.588;2024-03-17T11:26:33;15.90;56.20
19847;DHT22;10084;50.518;8.588;2024-03-17T11:29:01;16.10;55.80
19847;DHT22;10084;50.518;8.588;2024-03-17T11:31:32;16.10;55.50
19847;DHT22;10084;50.518;8.588;2024-03-17T11:34:34;16.10;55.50
19847;DHT22;10084;50.518;8.588;2024-03-17T11:37:02;16.20;55.60
19847;DHT22;10084;50.518;8.588;2024-03-17T11:39:52;16.40;55.10
19847;DHT22;10084;50.518;8.588;2024-03-17T11:42:22;16.60;54.10
19847;DHT22;10084;50.518;8.588;2024-03-17T11:45:04;17.00;54.60
19847;DHT22;10084;50.518;8.588;2024-03-17T11:47:40;17.10;53.80
19847;DHT22;10084;50.518;8.588;2024-03-17T11:50:09;16.80;54.10
19847;DHT22;10084;50.518;8.588;2024-03-17T11:52:38;16.60;54.60
19847;DHT22;10084;50.518;8.588;2024-03-17T11:55:16;16.30;55.10
19847;DHT22;10084;50.518;8.588;2024-03-17T11:57:42;16.10;55.50
19847;DHT22;10084;50.518;8.588;2024-03-17T12:00:22;15.90;55.80
19847;DHT22;10084;50.518;8.588;2024-03-17T12:02:49;15.80;56.10
19847;DHT22;10084;50.518;8.588;2024-03-17T12:05:15;15.80;56.40
19847;DHT22;10084;50.518;8.588;2024-03-17T12:07:44;15.80;56.60
19847;DHT22;10084;50.518;8.588;2024-03-17T12:10:13;16.00;56.50
19847;DHT22;10084;50.518;8.588;2024-03-17T12:12:47;16.30;56.20
19847;DHT22;10084;50.518;8.588;2024-03-17T12:15:17;16.80;55.70
19847;DHT22;10084;50.518;8.588;2024-03-17T12:17:43;17.00;55.20
19847;DHT22;10084;50.518;8.588;2024-03-17T12:20:20;17.20;55.00
19847;DHT22;10084;50.518;8.588;2024-03-17T12:22:47;17.30;54.80
19847;DHT22;10084;50.518;8.588;2024-03-17T12:25:20;17.20;54.50
19847;DHT22;10084;50.518;8.588;2024-03-17T12:27:46;17.20;54.60
19847;DHT22;10084;50.518;8.588;2024-03-17T12:30:15;17.20;54.90
19847;DHT22;10084;50.518;8.588;2024-03-17T12:32:41;17.50;54.60
19847;DHT22;10084;50.518;8.588;2024-03-17T12:35:15;17.50;54.10
19847;DHT22;10084;50.518;8.588;2024-03-17T12:37:44;17.60;54.30
19847;DHT22;10084;50.518;8.588;2024-03-17T12:40:23;17.50;53.70
19847;DHT22;10084;50.518;8.588;2024-03-17T12:42:50;17.40;53.80
19847;DHT22;10084;50.518;8.588;2024-03-17T12:45:21;17.30;54.10
19847;DHT22;10084;50.518;8.588;2024-03-17T12:47:48;17.10;54.20
19847;DHT22;10084;50.518;8.588;2024-03-17T12:50:15;17.00;54.60
19847;DHT22;10084;50.518;8.588;2024-03-17T12:52:46;16.90;54.50
19847;DHT22;10084;50.518;8.588;2024-03-17T12:55:19;16.80;54.60
19847;DHT22;10084;50.518;8.588;2024-03-17T13:03:29;16.20;54.50
19847;DHT22;10084;50.518;8.588;2024-03-17T13:05:57;16.10;54.60
19847;DHT22;10084;50.518;8.588;2024-03-17T13:08:23;16.10;55.10
19847;DHT22;10084;50.518;8.588;2024-03-17T13:10:49;16.10;55.10
19847;DHT22;10084;50.518;8.588;2024-03-17T13:13:15;16.10;55.30
19847;DHT22;10084;50.518;8.588;2024-03-17T13:15:42;16.10;55.30
19847;DHT22;10084;50.518;8.588;2024-03-17T13:18:08;15.90;55.20
19847;DHT22;10084;50.518;8.588;2024-03-17T13:20:34;15.90;55.40
19847;DHT22;10084;50.518;8.588;2024-03-17T13:23:01;15.90;55.60
19847;DHT22;10084;50.518;8.588;2024-03-17T13:25:30;15.80;55.50
19847;DHT22;10084;50.518;8.588;2024-03-17T13:28:09;15.70;55.50
19847;DHT22;10084;50.518;8.588;2024-03-17T13:30:35;15.70;56.50
19847;DHT22;10084;50.518;8.588;2024-03-17T13:33:05;15.80;56.00
19847;DHT22;10084;50.518;8.588;2024-03-17T13:35:35;15.90;55.90
19847;DHT22;10084;50.518;8.588;2024-03-17T13:38:08;16.00;55.70
19847;DHT22;10084;50.518;8.588;2024-03-17T13:40:36;16.00;55.60
19847;DHT22;10084;50.518;8.588;2024-03-17T13:43:03;16.10;55.60
19847;DHT22;10084;50.518;8.588;2024-03-17T13:45:34;16.40;55.70
19847;DHT22;10084;50.518;8.588;2024-03-17T13:48:04;16.70;55.50
19847;DHT22;10084;50.518;8.588;2024-03-17T13:50:30;17.30;55.50
19847;DHT22;10084;50.518;8.588;2024-03-17T13:52:56;17.90;55.00
19847;DHT22;10084;50.518;8.588;2024-03-17T13:55:23;18.50;54.70
19847;DHT22;10084;50.518;8.588;2024-03-17T13:57:56;19.10;53.60
19847;DHT22;10084;50.518;8.588;2024-03-17T14:00:29;19.10;51.80
19847;DHT22;10084;50.518;8.588;2024-03-17T14:02:57;19.00;51.60
19847;DHT22;10084;50.518;8.588;2024-03-17T14:05:24;18.90;51.90
19847;DHT22;10084;50.518;8.588;2024-03-17T14:07:51;18.90;52.30
19847;DHT22;10084;50.518;8.588;2024-03-17T14:10:19;19.00;52.30
19847;DHT22;10084;50.518;8.588;2024-03-17T14:12:45;19.10;52.20
19847;DHT22;10084;50.518;8.588;2024-03-17T14:15:13;19.30;51.90
19847;DHT22;10084;50.518;8.588;2024-03-17T14:17:48;19.20;51.30
19847;DHT22;10084;50.518;8.588;2024-03-17T14:20:16;19.00;51.20
19847;DHT22;10084;50.518;8.588;2024-03-17T14:22:44;18.60;51.30
19847;DHT22;10084;50.518;8.588;2024-03-17T14:25:17;18.20;51.50
19847;DHT22;10084;50.518;8.588;2024-03-17T14:27:44;18.00;52.10
19847;DHT22;10084;50.518;8.588;2024-03-17T14:30:14;17.80;52.40
19847;DHT22;10084;50.518;8.588;2024-03-17T14:32:40;17.60;52.50
19847;DHT22;10084;50.518;8.588;2024-03-17T14:35:06;17.40;52.70
19847;DHT22;10084;50.518;8.588;2024-03-17T14:37:33;17.20;52.90
19847;DHT22;10084;50.518;8.588;2024-03-17T14:39:59;17.00;53.00
19847;DHT22;10084;50.518;8.588;2024-03-17T14:42:25;16.80;53.10
19847;DHT22;10084;50.518;8.588;2024-03-17T14:44:51;16.60;53.40
19847;DHT22;10084;50.518;8.588;2024-03-17T14:47:16;16.50;53.60
19847;DHT22;10084;50.518;8.588;2024-03-17T14:49:42;16.30;53.70
19847;DHT22;10084;50.518;8.588;2024-03-17T14:52:09;16.10;53.90
19847;DHT22;10084;50.518;8.588;2024-03-17T14:54:35;16.00;54.20
19847;DHT22;10084;50.518;8.588;2024-03-17T14:57:01;15.80;54.40
19847;DHT22;10084;50.518;8.588;2024-03-17T14:59:26;15.70;54.60
19847;DHT22;10084;50.518;8.588;2024-03-17T15:01:52;15.50;54.70
19847;DHT22;10084;50.518;8.588;2024-03-17T15:04:18;15.30;55.10
19847;DHT22;10084;50.518;8.588;2024-03-17T15:06:45;15.10;55.50
19847;DHT22;10084;50.518;8.588;2024-03-17T15:09:11;15.00;55.70
19847;DHT22;10084;50.518;8.588;2024-03-17T15:11:38;14.90;56.00
19847;DHT22;10084;50.518;8.588;2024-03-17T15:14:03;14.80;56.20
19847;DHT22;10084;50.518;8.588;2024-03-17T15:16:33;14.60;56.40
19847;DHT22;10084;50.518;8.588;2024-03-17T15:18:59;14.50;56.60
19847;DHT22;10084;50.518;8.588;2024-03-17T15:21:25;14.40;56.80
19847;DHT22;10084;50.518;8.588;2024-03-17T15:23:52;14.30;57.10
19847;DHT22;10084;50.518;8.588;2024-03-17T15:26:18;14.30;57.30
19847;DHT22;10084;50.518;8.588;2024-03-17T15:28:45;14.20;57.40
19847;DHT22;10084;50.518;8.588;2024-03-17T15:31:11;14.10;57.60
19847;DHT22;10084;50.518;8.588;2024-03-17T15:33:38;14.00;57.70
19847;DHT22;10084;50.518;8.588;2024-03-17T15:36:07;13.90;57.90
19847;DHT22;10084;50.518;8.588;2024-03-17T15:38:34;13.90;57.90
19847;DHT22;10084;50.518;8.588;2024-03-17T15:41:05;13.90;58.10
19847;DHT22;10084;50.518;8.588;2024-03-17T15:43:37;13.90;58.10
19847;DHT22;10084;50.518;8.588;2024-03-17T15:46:16;13.90;58.20
19847;DHT22;10084;50.518;8.588;2024-03-17T15:48:44;13.90;58.30
19847;DHT22;10084;50.518;8.588;2024-03-17T15:51:11;13.90;58.30
19847;DHT22;10084;50.518;8.588;2024-03-17T15:53:36;13.90;58.30
19847;DHT22;10084;50.518;8.588;2024-03-17T15:56:04;13.80;58.30
19847;DHT22;10084;50.518;8.588;2024-03-17T15:58:31;13.70;58.30
19847;DHT22;10084;50.518;8.588;2024-03-17T16:00:58;13.70;58.50
19847;DHT22;10084;50.518;8.588;2024-03-17T16:03:31;13.70;58.60
19847;DHT22;10084;50.518;8.588;2024-03-17T16:06:07;13.60;58.70
19847;DHT22;10084;50.518;8.588;2024-03-17T16:08:40;13.60;58.80